sensor_id;sensor_type;location;lat;lon;timestamp;pressure;altitude;pressure_sealevel;temperature
66170;BMP280;52971;44.024;20.456;2022-10-16T00:00:42;98540.59;;;10.70
66170;BMP280;52971;44.024;20.456;2022-10-16T00:03:09;98543.03;;;10.66
66170;BMP280;52971;44.024;20.456;2022-10-16T00:05:41;98546.19;;;10.68
66170;BMP280;52971;44.024;20.456;2022-10-16T00:08:08;98551.84;;;10.61
66170;BMP280;52971;44.024;20.456;2022-10-16T00:10:34;98545.38;;;10.49
66170;BMP280;52971;44.024;20.456;2022-10-16T00:12:59;98548.31;;;10.47
66170;BMP280;52971;44.024;20.456;2022-10-16T00:15:25;98547.94;;;10.54
66170;BMP280;52971;44.024;20.456;2022-10-16T00:17:50;98553.84;;;10.51
66170;BMP280;52971;44.024;20.456;2022-10-16T00:20:16;98556.94;;;10.58
66170;BMP280;52971;44.024;20.456;2022-10-16T00:22:41;98555.78;;;10.64
66170;BMP280;52971;44.024;20.456;2022-10-16T00:25:07;98547.63;;;10.60
66170;BMP280;52971;44.024;20.456;2022-10-16T00:27:33;98551.38;;;10.54
66170;BMP280;52971;44.024;20.456;2022-10-16T00:29:59;98547.94;;;10.54
66170;BMP280;52971;44.024;20.456;2022-10-16T00:32:24;98547.59;;;10.42
66170;BMP280;52971;44.024;20.456;2022-10-16T00:34:50;98552.72;;;10.33
66170;BMP280;52971;44.024;20.456;2022-10-16T00:37:16;98552.09;;;10.41
66170;BMP280;52971;44.024;20.456;2022-10-16T00:39:41;98555.56;;;10.37
66170;BMP280;52971;44.024;20.456;2022-10-16T00:42:14;98552.34;;;10.40
66170;BMP280;52971;44.024;20.456;2022-10-16T00:44:52;98555.75;;;10.45
66170;BMP280;52971;44.024;20.456;2022-10-16T00:47:42;98562.97;;;10.40
66170;BMP280;52971;44.024;20.456;2022-10-16T00:52:48;98559.81;;;10.38
66170;BMP280;52971;44.024;20.456;2022-10-16T00:55:15;98564.91;;;10.34
66170;BMP280;52971;44.024;20.456;2022-10-16T00:57:41;98570.66;;;10.41
66170;BMP280;52971;44.024;20.456;2022-10-16T01:00:09;98570.88;;;10.45
66170;BMP280;52971;44.024;20.456;2022-10-16T01:02:35;98571.19;;;10.38
66170;BMP280;52971;44.024;20.456;2022-10-16T01:05:01;98585.25;;;10.39
66170;BMP280;52971;44.024;20.456;2022-10-16T01:21:00;98569.34;;;10.62
66170;BMP280;52971;44.024;20.456;2022-10-16T01:29:49;98568.56;;;10.62
66170;BMP280;52971;44.024;20.456;2022-10-16T01:32:24;98559.16;;;10.51
66170;BMP280;52971;44.024;20.456;2022-10-16T01:35:15;98561.75;;;10.56
66170;BMP280;52971;44.024;20.456;2022-10-16T01:37:46;98562.16;;;10.44
66170;BMP280;52971;44.024;20.456;2022-10-16T01:40:16;98565.09;;;10.38
66170;BMP280;52971;44.024;20.456;2022-10-16T01:42:46;98574.03;;;10.47
66170;BMP280;52971;44.024;20.456;2022-10-16T01:45:14;98568.28;;;10.40
66170;BMP280;52971;44.024;20.456;2022-10-16T01:47:44;98567.84;;;10.56
66170;BMP280;52971;44.024;20.456;2022-10-16T01:50:10;98571.19;;;10.62
66170;BMP280;52971;44.024;20.456;2022-10-16T01:52:40;98568.63;;;10.57
66170;BMP280;52971;44.024;20.456;2022-10-16T01:55:09;98574.31;;;10.45
66170;BMP280;52971;44.024;20.456;2022-10-16T01:57:38;98573.38;;;10.60
66170;BMP280;52971;44.024;20.456;2022-10-16T02:00:09;98588.28;;;10.56
66170;BMP280;52971;44.024;20.456;2022-10-16T02:02:36;98586.91;;;10.58
66170;BMP280;52971;44.024;20.456;2022-10-16T02:05:24;98589.44;;;10.69
66170;BMP280;52971;44.024;20.456;2022-10-16T02:07:51;98587.56;;;10.69
66170;BMP280;52971;44.024;20.456;2022-10-16T02:10:17;98597.25;;;10.55
66170;BMP280;52971;44.024;20.456;2022-10-16T02:12:48;98609.25;;;10.76
66170;BMP280;52971;44.024;20.456;2022-10-16T02:15:15;98604.66;;;10.82
66170;BMP280;52971;44.024;20.456;2022-10-16T02:17:40;98597.06;;;10.75
66170;BMP280;52971;44.024;20.456;2022-10-16T02:20:07;98599.91;;;10.60
66170;BMP280;52971;44.024;20.456;2022-10-16T02:22:41;98609.19;;;10.81
66170;BMP280;52971;44.024;20.456;2022-10-16T02:25:12;98606.41;;;10.91
66170;BMP280;52971;44.024;20.456;2022-10-16T02:28:09;98610.44;;;10.89
66170;BMP280;52971;44.024;20.456;2022-10-16T02:30:55;98603.31;;;10.84
66170;BMP280;52971;44.024;20.456;2022-10-16T02:33:23;98599.22;;;10.73
66170;BMP280;52971;44.024;20.456;2022-10-16T02:35:50;98604.97;;;10.56
66170;BMP280;52971;44.024;20.456;2022-10-16T02:38:17;98607.78;;;10.65
66170;BMP280;52971;44.024;20.456;2022-10-16T02:40:43;98600.09;;;10.63
66170;BMP280;52971;44.024;20.456;2022-10-16T02:43:09;98600.19;;;10.77
66170;BMP280;52971;44.024;20.456;2022-10-16T02:45:36;98596.22;;;10.56
66170;BMP280;52971;44.024;20.456;2022-10-16T02:48:01;98600.50;;;10.52
66170;BMP280;52971;44.024;20.456;2022-10-16T02:50:27;98603.22;;;10.47
66170;BMP280;52971;44.024;20.456;2022-10-16T02:52:53;98599.09;;;10.36
66170;BMP280;52971;44.024;20.456;2022-10-16T02:55:18;98602.91;;;10.24
66170;BMP280;52971;44.024;20.456;2022-10-16T02:57:44;98613.63;;;10.38
66170;BMP280;52971;44.024;20.456;2022-10-16T03:00:12;98605.47;;;10.35
66170;BMP280;52971;44.024;20.456;2022-10-16T03:02:38;98602.81;;;10.35
66170;BMP280;52971;44.024;20.456;2022-10-16T03:05:04;98598.75;;;10.18
66170;BMP280;52971;44.024;20.456;2022-10-16T03:07:46;98603.59;;;10.06
66170;BMP280;52971;44.024;20.456;2022-10-16T03:10:12;98603.16;;;9.94
66170;BMP280;52971;44.024;20.456;2022-10-16T03:12:37;98610.03;;;9.95
66170;BMP280;52971;44.024;20.456;2022-10-16T03:15:03;98611.50;;;9.77
66170;BMP280;52971;44.024;20.456;2022-10-16T03:17:28;98613.38;;;9.77
66170;BMP280;52971;44.024;20.456;2022-10-16T03:19:54;98619.56;;;9.67
66170;BMP280;52971;44.024;20.456;2022-10-16T03:22:19;98617.41;;;9.69
66170;BMP280;52971;44.024;20.456;2022-10-16T03:24:45;98620.25;;;9.78
66170;BMP280;52971;44.024;20.456;2022-10-16T03:27:10;98624.88;;;9.62
66170;BMP280;52971;44.024;20.456;2022-10-16T03:29:36;98623.47;;;9.75
66170;BMP280;52971;44.024;20.456;2022-10-16T03:32:01;98627.91;;;9.45
66170;BMP280;52971;44.024;20.456;2022-10-16T03:34:27;98633.63;;;9.63
66170;BMP280;52971;44.024;20.456;2022-10-16T03:36:53;98630.22;;;9.57
66170;BMP280;52971;44.024;20.456;2022-10-16T03:39:19;98636.53;;;9.66
66170;BMP280;52971;44.024;20.456;2022-10-16T03:41:44;98641.03;;;9.60
66170;BMP280;52971;44.024;20.456;2022-10-16T03:44:12;98632.56;;;9.64
66170;BMP280;52971;44.024;20.456;2022-10-16T03:46:37;98626.22;;;9.59
66170;BMP280;52971;44.024;20.456;2022-10-16T03:49:02;98632.91;;;9.52
66170;BMP280;52971;44.024;20.456;2022-10-16T03:51:28;98635.31;;;9.43
66170;BMP280;52971;44.024;20.456;2022-10-16T03:53:54;98630.16;;;9.23
66170;BMP280;52971;44.024;20.456;2022-10-16T03:56:19;98637.53;;;9.26
66170;BMP280;52971;44.024;20.456;2022-10-16T03:58:44;98636.72;;;9.31
66170;BMP280;52971;44.024;20.456;2022-10-16T04:01:10;98632.47;;;9.40
66170;BMP280;52971;44.024;20.456;2022-10-16T04:03:35;98630.59;;;9.35
66170;BMP280;52971;44.024;20.456;2022-10-16T04:06:01;98634.25;;;9.44
66170;BMP280;52971;44.024;20.456;2022-10-16T04:08:26;98625.28;;;9.40
66170;BMP280;52971;44.024;20.456;2022-10-16T04:10:52;98638.28;;;9.32
66170;BMP280;52971;44.024;20.456;2022-10-16T04:13:17;98643.38;;;9.23
66170;BMP280;52971;44.024;20.456;2022-10-16T04:15:44;98639.94;;;9.22
66170;BMP280;52971;44.024;20.456;2022-10-16T04:18:10;98646.69;;;9.49
66170;BMP280;52971;44.024;20.456;2022-10-16T04:20:35;98646.75;;;9.34
66170;BMP280;52971;44.024;20.456;2022-10-16T04:23:01;98645.47;;;9.26
66170;BMP280;52971;44.024;20.456;2022-10-16T04:25:27;98642.56;;;9.27
66170;BMP280;52971;44.024;20.456;2022-10-16T04:27:53;98642.41;;;9.09
66170;BMP280;52971;44.024;20.456;2022-10-16T04:30:19;98644.97;;;9.19
66170;BMP280;52971;44.024;20.456;2022-10-16T04:32:49;98643.91;;;9.25
66170;BMP280;52971;44.024;20.456;2022-10-16T04:35:16;98654.97;;;9.37
66170;BMP280;52971;44.024;20.456;2022-10-16T04:37:42;98649.50;;;9.13
66170;BMP280;52971;44.024;20.456;2022-10-16T04:40:07;98655.03;;;9.17
66170;BMP280;52971;44.024;20.456;2022-10-16T04:42:33;98648.16;;;9.21
66170;BMP280;52971;44.024;20.456;2022-10-16T04:44:58;98652.50;;;8.86
66170;BMP280;52971;44.024;20.456;2022-10-16T04:47:24;98653.00;;;8.93
66170;BMP280;52971;44.024;20.456;2022-10-16T04:49:49;98652.97;;;9.09
66170;BMP280;52971;44.024;20.456;2022-10-16T04:52:15;98659.91;;;8.84
66170;BMP280;52971;44.024;20.456;2022-10-16T04:54:40;98670.44;;;9.10
66170;BMP280;52971;44.024;20.456;2022-10-16T04:57:06;98673.56;;;9.17
66170;BMP280;52971;44.024;20.456;2022-10-16T04:59:31;98677.59;;;9.09
66170;BMP280;52971;44.024;20.456;2022-10-16T05:01:57;98682.56;;;9.16
66170;BMP280;52971;44.024;20.456;2022-10-16T05:04:22;98679.66;;;9.17
66170;BMP280;52971;44.024;20.456;2022-10-16T05:06:48;98686.31;;;9.05
66170;BMP280;52971;44.024;20.456;2022-10-16T05:09:14;98693.22;;;8.96
66170;BMP280;52971;44.024;20.456;2022-10-16T05:11:39;98696.94;;;8.84
66170;BMP280;52971;44.024;20.456;2022-10-16T05:14:05;98700.66;;;8.83
66170;BMP280;52971;44.024;20.456;2022-10-16T05:16:30;98710.16;;;8.89
66170;BMP280;52971;44.024;20.456;2022-10-16T05:18:56;98698.25;;;9.02
66170;BMP280;52971;44.024;20.456;2022-10-16T05:21:22;98710.44;;;8.93
66170;BMP280;52971;44.024;20.456;2022-10-16T05:23:47;98706.19;;;8.97
66170;BMP280;52971;44.024;20.456;2022-10-16T05:26:13;98714.66;;;8.99
66170;BMP280;52971;44.024;20.456;2022-10-16T05:28:38;98714.91;;;9.03
66170;BMP280;52971;44.024;20.456;2022-10-16T05:31:05;98711.75;;;8.90
66170;BMP280;52971;44.024;20.456;2022-10-16T05:33:31;98708.81;;;9.02
66170;BMP280;52971;44.024;20.456;2022-10-16T05:36:01;98720.44;;;9.06
66170;BMP280;52971;44.024;20.456;2022-10-16T05:38:26;98724.91;;;9.16
66170;BMP280;52971;44.024;20.456;2022-10-16T05:40:52;98729.19;;;9.12
66170;BMP280;52971;44.024;20.456;2022-10-16T05:43:18;98736.56;;;9.15
66170;BMP280;52971;44.024;20.456;2022-10-16T05:45:44;98743.38;;;9.31
66170;BMP280;52971;44.024;20.456;2022-10-16T05:48:09;98737.25;;;9.41
66170;BMP280;52971;44.024;20.456;2022-10-16T05:50:35;98730.66;;;9.33
66170;BMP280;52971;44.024;20.456;2022-10-16T05:53:00;98732.47;;;9.48
66170;BMP280;52971;44.024;20.456;2022-10-16T05:55:25;98739.41;;;9.39
66170;BMP280;52971;44.024;20.456;2022-10-16T05:57:54;98738.88;;;9.32
66170;BMP280;52971;44.024;20.456;2022-10-16T06:00:19;98741.28;;;9.38
66170;BMP280;52971;44.024;20.456;2022-10-16T06:02:45;98749.66;;;9.55
66170;BMP280;52971;44.024;20.456;2022-10-16T06:05:11;98750.66;;;9.70
66170;BMP280;52971;44.024;20.456;2022-10-16T06:07:36;98754.63;;;9.72
66170;BMP280;52971;44.024;20.456;2022-10-16T06:10:03;98755.09;;;9.79
66170;BMP280;52971;44.024;20.456;2022-10-16T06:12:29;98760.06;;;9.96
66170;BMP280;52971;44.024;20.456;2022-10-16T06:14:54;98762.44;;;9.98
66170;BMP280;52971;44.024;20.456;2022-10-16T06:17:19;98759.97;;;10.06
66170;BMP280;52971;44.024;20.456;2022-10-16T06:19:45;98767.28;;;10.24
66170;BMP280;52971;44.024;20.456;2022-10-16T06:22:10;98767.28;;;10.24
66170;BMP280;52971;44.024;20.456;2022-10-16T06:24:36;98767.75;;;10.32
66170;BMP280;52971;44.024;20.456;2022-10-16T06:27:03;98777.13;;;10.53
66170;BMP280;52971;44.024;20.456;2022-10-16T06:29:29;98767.28;;;10.58
66170;BMP280;52971;44.024;20.456;2022-10-16T06:31:54;98770.09;;;10.72
66170;BMP280;52971;44.024;20.456;2022-10-16T06:34:20;98767.09;;;10.79
66170;BMP280;52971;44.024;20.456;2022-10-16T06:36:45;98770.44;;;10.89
66170;BMP280;52971;44.024;20.456;2022-10-16T06:39:10;98777.63;;;11.13
66170;BMP280;52971;44.024;20.456;2022-10-16T06:41:36;98783.75;;;11.37
66170;BMP280;52971;44.024;20.456;2022-10-16T06:44:05;98776.38;;;11.29
66170;BMP280;52971;44.024;20.456;2022-10-16T06:46:31;98778.63;;;11.41
66170;BMP280;52971;44.024;20.456;2022-10-16T06:48:57;98775.56;;;11.76
66170;BMP280;52971;44.024;20.456;2022-10-16T06:51:24;98786.28;;;11.90
66170;BMP280;52971;44.024;20.456;2022-10-16T06:53:52;98788.91;;;12.09
66170;BMP280;52971;44.024;20.456;2022-10-16T06:56:21;98782.06;;;12.21
66170;BMP280;52971;44.024;20.456;2022-10-16T06:58:48;98789.88;;;12.31
66170;BMP280;52971;44.024;20.456;2022-10-16T07:01:15;98786.13;;;12.51
66170;BMP280;52971;44.024;20.456;2022-10-16T07:03:42;98784.63;;;12.59
66170;BMP280;52971;44.024;20.456;2022-10-16T07:06:09;98787.13;;;12.69
66170;BMP280;52971;44.024;20.456;2022-10-16T07:08:37;98787.78;;;12.93
66170;BMP280;52971;44.024;20.456;2022-10-16T07:11:09;98789.38;;;13.08
66170;BMP280;52971;44.024;20.456;2022-10-16T07:13:36;98796.63;;;13.16
66170;BMP280;52971;44.024;20.456;2022-10-16T07:16:12;98793.47;;;13.41
66170;BMP280;52971;44.024;20.456;2022-10-16T07:18:38;98794.56;;;13.54
66170;BMP280;52971;44.024;20.456;2022-10-16T07:21:16;98798.66;;;13.74
66170;BMP280;52971;44.024;20.456;2022-10-16T07:23:42;98796.16;;;13.91
66170;BMP280;52971;44.024;20.456;2022-10-16T07:26:09;98793.53;;;14.00
66170;BMP280;52971;44.024;20.456;2022-10-16T07:28:35;98800.38;;;14.28
66170;BMP280;52971;44.024;20.456;2022-10-16T07:31:06;98803.34;;;14.35
66170;BMP280;52971;44.024;20.456;2022-10-16T07:33:32;98800.19;;;14.55
66170;BMP280;52971;44.024;20.456;2022-10-16T07:35:58;98813.19;;;14.71
66170;BMP280;52971;44.024;20.456;2022-10-16T07:38:23;98804.25;;;14.84
66170;BMP280;52971;44.024;20.456;2022-10-16T07:40:59;98807.00;;;15.01
66170;BMP280;52971;44.024;20.456;2022-10-16T07:43:26;98805.34;;;15.22
66170;BMP280;52971;44.024;20.456;2022-10-16T07:45:52;98808.38;;;14.90
66170;BMP280;52971;44.024;20.456;2022-10-16T07:48:18;98797.94;;;15.19
66170;BMP280;52971;44.024;20.456;2022-10-16T07:50:44;98817.03;;;15.44
66170;BMP280;52971;44.024;20.456;2022-10-16T07:53:11;98815.34;;;15.08
66170;BMP280;52971;44.024;20.456;2022-10-16T07:55:37;98815.56;;;15.20
66170;BMP280;52971;44.024;20.456;2022-10-16T07:58:03;98815.28;;;15.30
66170;BMP280;52971;44.024;20.456;2022-10-16T08:00:30;98809.47;;;15.37
66170;BMP280;52971;44.024;20.456;2022-10-16T08:02:56;98820.97;;;15.55
66170;BMP280;52971;44.024;20.456;2022-10-16T08:05:28;98815.81;;;15.76
66170;BMP280;52971;44.024;20.456;2022-10-16T08:07:54;98818.00;;;15.65
66170;BMP280;52971;44.024;20.456;2022-10-16T08:10:21;98824.16;;;15.91
66170;BMP280;52971;44.024;20.456;2022-10-16T08:12:47;98824.16;;;16.08
66170;BMP280;52971;44.024;20.456;2022-10-16T08:15:12;98824.72;;;16.40
66170;BMP280;52971;44.024;20.456;2022-10-16T08:17:38;98819.66;;;16.47
66170;BMP280;52971;44.024;20.456;2022-10-16T08:20:04;98824.72;;;16.40
66170;BMP280;52971;44.024;20.456;2022-10-16T08:22:30;98825.47;;;16.66
66170;BMP280;52971;44.024;20.456;2022-10-16T08:24:55;98825.41;;;16.75
66170;BMP280;52971;44.024;20.456;2022-10-16T08:27:21;98828.13;;;16.66
66170;BMP280;52971;44.024;20.456;2022-10-16T08:29:48;98831.88;;;16.82
66170;BMP280;52971;44.024;20.456;2022-10-16T08:32:14;98824.75;;;16.78
66170;BMP280;52971;44.024;20.456;2022-10-16T08:34:39;98829.34;;;16.77
66170;BMP280;52971;44.024;20.456;2022-10-16T08:37:04;98825.50;;;16.96
66170;BMP280;52971;44.024;20.456;2022-10-16T08:39:30;98833.03;;;17.32
66170;BMP280;52971;44.024;20.456;2022-10-16T08:45:08;98829.28;;;17.53
66170;BMP280;52971;44.024;20.456;2022-10-16T08:50:25;98830.81;;;17.54
66170;BMP280;52971;44.024;20.456;2022-10-16T08:52:53;98832.84;;;17.78
66170;BMP280;52971;44.024;20.456;2022-10-16T08:55:43;98833.81;;;17.94
66170;BMP280;52971;44.024;20.456;2022-10-16T08:58:12;98830.31;;;17.82
66170;BMP280;52971;44.024;20.456;2022-10-16T09:00:39;98836.19;;;18.08
66170;BMP280;52971;44.024;20.456;2022-10-16T09:08:23;98834.41;;;18.33
66170;BMP280;52971;44.024;20.456;2022-10-16T09:10:58;98836.03;;;18.58
66170;BMP280;52971;44.024;20.456;2022-10-16T09:13:51;98836.13;;;18.74
66170;BMP280;52971;44.024;20.456;2022-10-16T09:16:24;98837.91;;;18.70
66170;BMP280;52971;44.024;20.456;2022-10-16T09:19:17;98838.69;;;18.70
66170;BMP280;52971;44.024;20.456;2022-10-16T09:21:46;98838.59;;;18.79
66170;BMP280;52971;44.024;20.456;2022-10-16T09:24:21;98841.50;;;19.10
66170;BMP280;52971;44.024;20.456;2022-10-16T09:26:47;98835.16;;;19.03
66170;BMP280;52971;44.024;20.456;2022-10-16T09:29:17;98836.34;;;19.05
66170;BMP280;52971;44.024;20.456;2022-10-16T09:31:45;98831.88;;;18.97
66170;BMP280;52971;44.024;20.456;2022-10-16T09:34:34;98840.38;;;19.11
66170;BMP280;52971;44.024;20.456;2022-10-16T09:37:03;98845.22;;;19.30
66170;BMP280;52971;44.024;20.456;2022-10-16T09:39:29;98834.03;;;19.56
66170;BMP280;52971;44.024;20.456;2022-10-16T09:41:55;98842.44;;;19.66
66170;BMP280;52971;44.024;20.456;2022-10-16T09:44:24;98835.25;;;19.86
66170;BMP280;52971;44.024;20.456;2022-10-16T09:47:04;98835.72;;;19.88
66170;BMP280;52971;44.024;20.456;2022-10-16T09:49:30;98836.75;;;20.43
66170;BMP280;52971;44.024;20.456;2022-10-16T09:52:13;98835.09;;;20.38
66170;BMP280;52971;44.024;20.456;2022-10-16T09:54:56;98839.09;;;20.60
66170;BMP280;52971;44.024;20.456;2022-10-16T09:57:22;98834.84;;;20.59
66170;BMP280;52971;44.024;20.456;2022-10-16T09:59:50;98844.41;;;20.72
66170;BMP280;52971;44.024;20.456;2022-10-16T10:02:19;98840.94;;;20.56
66170;BMP280;52971;44.024;20.456;2022-10-16T10:04:54;98833.78;;;20.48
66170;BMP280;52971;44.024;20.456;2022-10-16T10:07:33;98835.59;;;20.75
66170;BMP280;52971;44.024;20.456;2022-10-16T10:10:03;98835.59;;;20.75
66170;BMP280;52971;44.024;20.456;2022-10-16T10:12:32;98834.34;;;20.69
66170;BMP280;52971;44.024;20.456;2022-10-16T10:15:06;98836.03;;;20.77
66170;BMP280;52971;44.024;20.456;2022-10-16T10:17:32;98835.19;;;20.73
66170;BMP280;52971;44.024;20.456;2022-10-16T10:20:00;98830.38;;;20.82
66170;BMP280;52971;44.024;20.456;2022-10-16T10:38:32;98824.75;;;22.03
66170;BMP280;52971;44.024;20.456;2022-10-16T10:46:26;98815.53;;;23.06
66170;BMP280;52971;44.024;20.456;2022-10-16T10:52:28;98816.81;;;23.49
66170;BMP280;52971;44.024;20.456;2022-10-16T10:54:37;98816.91;;;23.96
66170;BMP280;52971;44.024;20.456;2022-10-16T10:57:28;98804.63;;;24.60
66170;BMP280;52971;44.024;20.456;2022-10-16T11:02:31;98811.59;;;27.41
66170;BMP280;52971;44.024;20.456;2022-10-16T11:07:49;98808.34;;;28.45
66170;BMP280;52971;44.024;20.456;2022-10-16T11:10:20;98803.31;;;28.74
66170;BMP280;52971;44.024;20.456;2022-10-16T11:13:16;98810.19;;;28.22
66170;BMP280;52971;44.024;20.456;2022-10-16T11:15:39;98808.34;;;28.49
66170;BMP280;52971;44.024;20.456;2022-10-16T11:20:45;98813.59;;;27.33
66170;BMP280;52971;44.024;20.456;2022-10-16T11:25:48;98802.13;;;27.63
66170;BMP280;52971;44.024;20.456;2022-10-16T11:28:16;98796.31;;;27.54
66170;BMP280;52971;44.024;20.456;2022-10-16T11:33:34;98802.84;;;28.12
66170;BMP280;52971;44.024;20.456;2022-10-16T11:39:08;98795.47;;;28.46
66170;BMP280;52971;44.024;20.456;2022-10-16T11:41:44;98800.69;;;29.51
66170;BMP280;52971;44.024;20.456;2022-10-16T11:44:34;98789.41;;;28.65
66170;BMP280;52971;44.024;20.456;2022-10-16T11:49:31;98796.22;;;28.50
66170;BMP280;52971;44.024;20.456;2022-10-16T11:52:11;98790.63;;;28.27
66170;BMP280;52971;44.024;20.456;2022-10-16T11:57:37;98788.78;;;27.72
66170;BMP280;52971;44.024;20.456;2022-10-16T12:08:14;98784.59;;;26.95
66170;BMP280;52971;44.024;20.456;2022-10-16T12:10:43;98775.41;;;26.60
66170;BMP280;52971;44.024;20.456;2022-10-16T12:18:42;98772.31;;;23.86
66170;BMP280;52971;44.024;20.456;2022-10-16T12:21:10;98774.38;;;24.00
66170;BMP280;52971;44.024;20.456;2022-10-16T12:23:48;98780.81;;;22.85
66170;BMP280;52971;44.024;20.456;2022-10-16T12:26:24;98774.19;;;22.52
66170;BMP280;52971;44.024;20.456;2022-10-16T12:28:50;98776.34;;;22.96
66170;BMP280;52971;44.024;20.456;2022-10-16T12:31:17;98776.47;;;22.77
66170;BMP280;52971;44.024;20.456;2022-10-16T12:33:59;98772.59;;;22.74
66170;BMP280;52971;44.024;20.456;2022-10-16T12:36:31;98781.16;;;23.10
66170;BMP280;52971;44.024;20.456;2022-10-16T12:38:58;98772.19;;;23.02
66170;BMP280;52971;44.024;20.456;2022-10-16T12:41:30;98768.19;;;22.92
66170;BMP280;52971;44.024;20.456;2022-10-16T12:43:56;98767.47;;;22.99
66170;BMP280;52971;44.024;20.456;2022-10-16T12:51:47;98779.06;;;23.29
66170;BMP280;52971;44.024;20.456;2022-10-16T12:54:15;98769.88;;;23.04
66170;BMP280;52971;44.024;20.456;2022-10-16T13:10:28;98775.31;;;23.41
66170;BMP280;52971;44.024;20.456;2022-10-16T13:21:55;98777.53;;;23.65
66170;BMP280;52971;44.024;20.456;2022-10-16T13:24:48;98772.06;;;23.62
66170;BMP280;52971;44.024;20.456;2022-10-16T13:30:17;98775.41;;;23.88
66170;BMP280;52971;44.024;20.456;2022-10-16T13:32:46;98775.78;;;24.34
66170;BMP280;52971;44.024;20.456;2022-10-16T13:35:23;98775.81;;;24.42
66170;BMP280;52971;44.024;20.456;2022-10-16T13:37:49;98771.16;;;24.39
66170;BMP280;52971;44.024;20.456;2022-10-16T13:40:23;98774.81;;;24.09
66170;BMP280;52971;44.024;20.456;2022-10-16T13:42:50;98775.91;;;24.01
66170;BMP280;52971;44.024;20.456;2022-10-16T13:45:25;98776.09;;;24.19
66170;BMP280;52971;44.024;20.456;2022-10-16T13:48:02;98772.63;;;24.25
66170;BMP280;52971;44.024;20.456;2022-10-16T13:50:28;98771.97;;;23.92
66170;BMP280;52971;44.024;20.456;2022-10-16T13:53:06;98781.81;;;24.10
66170;BMP280;52971;44.024;20.456;2022-10-16T13:55:32;98781.09;;;23.39
66170;BMP280;52971;44.024;20.456;2022-10-16T13:58:07;98778.34;;;23.73
66170;BMP280;52971;44.024;20.456;2022-10-16T14:00:32;98772.28;;;23.83
66170;BMP280;52971;44.024;20.456;2022-10-16T14:03:07;98778.94;;;23.89
66170;BMP280;52971;44.024;20.456;2022-10-16T14:05:52;98778.94;;;23.89
66170;BMP280;52971;44.024;20.456;2022-10-16T14:08:18;98780.44;;;23.86
66170;BMP280;52971;44.024;20.456;2022-10-16T14:10:48;98780.94;;;23.99
66170;BMP280;52971;44.024;20.456;2022-10-16T14:13:24;98781.72;;;24.03
66170;BMP280;52971;44.024;20.456;2022-10-16T14:15:51;98780.22;;;23.65
66170;BMP280;52971;44.024;20.456;2022-10-16T14:18:20;98781.63;;;23.15
66170;BMP280;52971;44.024;20.456;2022-10-16T14:20:48;98780.16;;;23.25
66170;BMP280;52971;44.024;20.456;2022-10-16T14:25:47;98783.31;;;23.27
66170;BMP280;52971;44.024;20.456;2022-10-16T14:28:21;98791.91;;;23.36
66170;BMP280;52971;44.024;20.456;2022-10-16T14:30:58;98785.56;;;23.21
66170;BMP280;52971;44.024;20.456;2022-10-16T14:38:30;98791.16;;;22.76
66170;BMP280;52971;44.024;20.456;2022-10-16T14:40:58;98786.47;;;22.46
66170;BMP280;52971;44.024;20.456;2022-10-16T14:43:31;98789.22;;;22.50
66170;BMP280;52971;44.024;20.456;2022-10-16T14:45:57;98795.75;;;22.45
66170;BMP280;52971;44.024;20.456;2022-10-16T14:48:23;98794.00;;;22.56
66170;BMP280;52971;44.024;20.456;2022-10-16T14:50:49;98797.88;;;22.59
66170;BMP280;52971;44.024;20.456;2022-10-16T14:53:15;98799.59;;;22.44
66170;BMP280;52971;44.024;20.456;2022-10-16T14:55:41;98799.16;;;22.20
66170;BMP280;52971;44.024;20.456;2022-10-16T14:58:16;98802.88;;;22.34
66170;BMP280;52971;44.024;20.456;2022-10-16T15:00:42;98811.69;;;22.28
66170;BMP280;52971;44.024;20.456;2022-10-16T15:03:08;98805.91;;;22.06
66170;BMP280;52971;44.024;20.456;2022-10-16T15:05:33;98808.41;;;21.96
66170;BMP280;52971;44.024;20.456;2022-10-16T15:07:59;98802.22;;;21.95
66170;BMP280;52971;44.024;20.456;2022-10-16T15:10:27;98816.22;;;22.01
66170;BMP280;52971;44.024;20.456;2022-10-16T15:12:53;98812.75;;;21.81
66170;BMP280;52971;44.024;20.456;2022-10-16T15:15:37;98803.88;;;21.81
66170;BMP280;52971;44.024;20.456;2022-10-16T15:18:04;98816.97;;;21.79
66170;BMP280;52971;44.024;20.456;2022-10-16T15:20:32;98825.38;;;21.73
66170;BMP280;52971;44.024;20.456;2022-10-16T15:23:00;98816.56;;;21.57
66170;BMP280;52971;44.024;20.456;2022-10-16T15:28:08;98826.19;;;21.20
66170;BMP280;52971;44.024;20.456;2022-10-16T15:30:34;98820.59;;;21.09
66170;BMP280;52971;44.024;20.456;2022-10-16T15:33:00;98822.00;;;20.87
66170;BMP280;52971;44.024;20.456;2022-10-16T15:35:26;98830.47;;;20.70
66170;BMP280;52971;44.024;20.456;2022-10-16T15:37:51;98831.28;;;20.39
66170;BMP280;52971;44.024;20.456;2022-10-16T15:40:18;98830.28;;;20.32
66170;BMP280;52971;44.024;20.456;2022-10-16T15:42:44;98842.34;;;20.06
66170;BMP280;52971;44.024;20.456;2022-10-16T15:45:11;98844.03;;;19.83
66170;BMP280;52971;44.024;20.456;2022-10-16T15:47:37;98842.09;;;19.56
66170;BMP280;52971;44.024;20.456;2022-10-16T15:50:04;98848.19;;;19.28
66170;BMP280;52971;44.024;20.456;2022-10-16T15:52:29;98847.13;;;19.05
66170;BMP280;52971;44.024;20.456;2022-10-16T15:54:57;98860.78;;;18.88
66170;BMP280;52971;44.024;20.456;2022-10-16T15:57:23;98860.00;;;18.63
66170;BMP280;52971;44.024;20.456;2022-10-16T15:59:49;98867.22;;;18.51
66170;BMP280;52971;44.024;20.456;2022-10-16T16:02:15;98874.22;;;18.64
66170;BMP280;52971;44.024;20.456;2022-10-16T16:04:40;98865.53;;;18.46
66170;BMP280;52971;44.024;20.456;2022-10-16T16:07:06;98871.47;;;18.39
66170;BMP280;52971;44.024;20.456;2022-10-16T16:09:36;98877.94;;;18.26
66170;BMP280;52971;44.024;20.456;2022-10-16T16:12:01;98878.44;;;18.20
66170;BMP280;52971;44.024;20.456;2022-10-16T16:14:27;98883.00;;;18.07
66170;BMP280;52971;44.024;20.456;2022-10-16T16:16:54;98886.38;;;17.95
66170;BMP280;52971;44.024;20.456;2022-10-16T16:19:20;98883.63;;;17.62
66170;BMP280;52971;44.024;20.456;2022-10-16T16:21:47;98891.41;;;17.55